Aladdin, WY

10:04 PM MST on December 22, 2014 (GMT -0700)
KSDSPEAR3 | Change Station
CLOSE
Current Station
Personal Weather Station
Location: Spearfish, SD
Elevation: 3675 ft
Nearby Weather Stations
Active Advisory: Winter Weather Advisory

Elev 3675 ft 44.53 °N, 103.94 °W | Updated 4 minutes ago

Snow
Snow
28.4 °F
Feels Like 13 °F
N
28.2
Wind Variable Wind from NE
Gusts 32.0 mph

Today
High -- | Low -- °F
--% Chance of Precip.
Yesterday
High -- | Low -- °F
Precip. -- in
7:31 AM 4:19 PM
New Moon, 2% visible
Pressure 29.83 in
Visibility 1.8 miles
Clouds Scattered Clouds 900 ft
Mostly Cloudy 1400 ft
Windchill 13 °F
Dew Point 26 °F
Humidity 90%
Rainfall 5.63 in
Snow Depth Not available.
UV 0 out of 12
Pollen .10 out of 12
Air Quality Not available.
Flu Activity Not available.
METAR KSPF 230455Z AUTO 31023G32KT 1 3/4SM -SN SCT009 BKN014 M03/M05 A2983 RMK AO2 P0043

More Conditions Fewer Conditions

Pressure 29.83 in
Visibility 1.8 miles
Clouds Scattered Clouds 900 ft
Mostly Cloudy 1400 ft
Windchill 13 °F
Dew Point 26 °F
Humidity 90%
Rainfall 5.63 in
Snow Depth Not available.
UV 0 out of 12
Pollen .10 out of 12
Air Quality Not available.
Flu Activity Not available.
METAR KSPF 230455Z AUTO 31023G32KT 1 3/4SM -SN SCT009 BKN014 M03/M05 A2983 RMK AO2 P0043

More Conditions Fewer Conditions

10-Day Weather Forecast

Almanac

Astronomy

Dec. 22, 2014 Rise Set
Actual Time
Civil Twilight
Nautical Twilight
Astronomical Twilight
Moon
Length of Visible Light
Length of Day
Tomorrow will be .
, % of the Moon is Illuminated

Today's Extremes

State Highs State Lows

Community

WunderPhotos

Upload Photos

1,779,780 photos uploaded!

WunderBlogs® & News

Nearby

Air Quality

  Air Quality AQ Index Pollutant
Not available.

Snow Depth

Station Depth Elevation

Earthquake Activity

City Distance Mag. Time & Date
Minimum magnitude displayed is 2.5.

Coastal Water Temperatures

Place Temperature

Nearby Weather Stations